sensor_id;sensor_type;location;lat;lon;timestamp;P1;durP1;ratioP1;P2;durP2;ratioP2
49828;SDS011;35723;51.194;5.112;2023-04-25T00:01:04;28.00;;;6.70;;
49828;SDS011;35723;51.194;5.112;2023-04-25T00:03:31;25.60;;;6.00;;
49828;SDS011;35723;51.194;5.112;2023-04-25T00:05:57;29.58;;;6.13;;
49828;SDS011;35723;51.194;5.112;2023-04-25T00:08:26;30.80;;;6.40;;
49828;SDS011;35723;51.194;5.112;2023-04-25T00:10:52;22.67;;;5.43;;
49828;SDS011;35723;51.194;5.112;2023-04-25T00:13:18;24.25;;;5.72;;
49828;SDS011;35723;51.194;5.112;2023-04-25T00:15:44;30.23;;;5.88;;
49828;SDS011;35723;51.194;5.112;2023-04-25T00:18:13;23.80;;;5.95;;
49828;SDS011;35723;51.194;5.112;2023-04-25T00:20:39;25.40;;;6.32;;
49828;SDS011;35723;51.194;5.112;2023-04-25T00:23:05;24.55;;;6.10;;
49828;SDS011;35723;51.194;5.112;2023-04-25T00:25:31;27.27;;;5.90;;
49828;SDS011;35723;51.194;5.112;2023-04-25T00:27:56;23.67;;;5.43;;
49828;SDS011;35723;51.194;5.112;2023-04-25T00:30:22;31.08;;;6.05;;
49828;SDS011;35723;51.194;5.112;2023-04-25T00:32:48;31.55;;;5.80;;
49828;SDS011;35723;51.194;5.112;2023-04-25T00:35:14;30.95;;;5.78;;
49828;SDS011;35723;51.194;5.112;2023-04-25T00:37:39;25.55;;;5.97;;
49828;SDS011;35723;51.194;5.112;2023-04-25T00:40:05;29.60;;;5.80;;
49828;SDS011;35723;51.194;5.112;2023-04-25T00:42:31;22.00;;;5.57;;
49828;SDS011;35723;51.194;5.112;2023-04-25T00:44:58;26.33;;;5.75;;
49828;SDS011;35723;51.194;5.112;2023-04-25T00:47:25;26.05;;;6.03;;
49828;SDS011;35723;51.194;5.112;2023-04-25T00:49:50;28.90;;;5.88;;
49828;SDS011;35723;51.194;5.112;2023-04-25T00:52:18;26.38;;;5.80;;
49828;SDS011;35723;51.194;5.112;2023-04-25T00:54:44;26.25;;;6.13;;
49828;SDS011;35723;51.194;5.112;2023-04-25T00:57:10;25.35;;;6.20;;
49828;SDS011;35723;51.194;5.112;2023-04-25T00:59:36;22.83;;;6.00;;
49828;SDS011;35723;51.194;5.112;2023-04-25T01:02:03;27.52;;;6.22;;
49828;SDS011;35723;51.194;5.112;2023-04-25T01:04:30;26.98;;;6.30;;
49828;SDS011;35723;51.194;5.112;2023-04-25T01:06:56;27.27;;;6.40;;
49828;SDS011;35723;51.194;5.112;2023-04-25T01:09:22;24.35;;;6.40;;
49828;SDS011;35723;51.194;5.112;2023-04-25T01:11:49;25.67;;;6.53;;
49828;SDS011;35723;51.194;5.112;2023-04-25T01:14:15;25.17;;;6.43;;
49828;SDS011;35723;51.194;5.112;2023-04-25T01:16:41;25.75;;;6.28;;
49828;SDS011;35723;51.194;5.112;2023-04-25T01:19:08;23.63;;;6.32;;
49828;SDS011;35723;51.194;5.112;2023-04-25T01:21:37;26.83;;;6.18;;
49828;SDS011;35723;51.194;5.112;2023-04-25T01:24:03;25.15;;;6.20;;
49828;SDS011;35723;51.194;5.112;2023-04-25T01:26:30;27.92;;;6.47;;
49828;SDS011;35723;51.194;5.112;2023-04-25T01:28:56;29.45;;;6.53;;
49828;SDS011;35723;51.194;5.112;2023-04-25T01:31:22;24.73;;;6.43;;
49828;SDS011;35723;51.194;5.112;2023-04-25T01:33:49;23.85;;;6.57;;
49828;SDS011;35723;51.194;5.112;2023-04-25T01:36:14;24.35;;;6.70;;
49828;SDS011;35723;51.194;5.112;2023-04-25T01:38:40;28.48;;;6.97;;
49828;SDS011;35723;51.194;5.112;2023-04-25T01:41:06;24.30;;;6.35;;
49828;SDS011;35723;51.194;5.112;2023-04-25T01:43:32;25.50;;;6.63;;
49828;SDS011;35723;51.194;5.112;2023-04-25T01:45:58;23.58;;;7.03;;
49828;SDS011;35723;51.194;5.112;2023-04-25T01:48:24;23.40;;;6.13;;
49828;SDS011;35723;51.194;5.112;2023-04-25T01:50:50;23.63;;;7.13;;
49828;SDS011;35723;51.194;5.112;2023-04-25T01:53:16;26.38;;;7.20;;
49828;SDS011;35723;51.194;5.112;2023-04-25T01:55:41;28.60;;;7.68;;
49828;SDS011;35723;51.194;5.112;2023-04-25T01:58:07;29.10;;;7.13;;
49828;SDS011;35723;51.194;5.112;2023-04-25T02:00:35;28.75;;;7.95;;
49828;SDS011;35723;51.194;5.112;2023-04-25T02:03:03;29.05;;;8.02;;
49828;SDS011;35723;51.194;5.112;2023-04-25T02:05:33;26.30;;;7.35;;
49828;SDS011;35723;51.194;5.112;2023-04-25T02:08:00;27.70;;;8.10;;
49828;SDS011;35723;51.194;5.112;2023-04-25T02:10:26;27.23;;;7.70;;
49828;SDS011;35723;51.194;5.112;2023-04-25T02:12:52;29.33;;;8.00;;
49828;SDS011;35723;51.194;5.112;2023-04-25T02:15:17;29.48;;;7.60;;
49828;SDS011;35723;51.194;5.112;2023-04-25T02:17:43;26.17;;;7.38;;
49828;SDS011;35723;51.194;5.112;2023-04-25T02:20:10;27.92;;;7.10;;
49828;SDS011;35723;51.194;5.112;2023-04-25T02:22:36;25.27;;;7.30;;
49828;SDS011;35723;51.194;5.112;2023-04-25T02:25:02;34.92;;;8.25;;
49828;SDS011;35723;51.194;5.112;2023-04-25T02:27:29;28.92;;;7.63;;
49828;SDS011;35723;51.194;5.112;2023-04-25T02:29:55;34.00;;;8.23;;
49828;SDS011;35723;51.194;5.112;2023-04-25T02:32:21;27.23;;;7.75;;
49828;SDS011;35723;51.194;5.112;2023-04-25T02:34:47;34.55;;;8.63;;
49828;SDS011;35723;51.194;5.112;2023-04-25T02:37:13;29.73;;;7.78;;
49828;SDS011;35723;51.194;5.112;2023-04-25T02:39:39;27.17;;;7.90;;
49828;SDS011;35723;51.194;5.112;2023-04-25T02:42:04;26.83;;;8.23;;
49828;SDS011;35723;51.194;5.112;2023-04-25T02:44:30;30.05;;;8.13;;
49828;SDS011;35723;51.194;5.112;2023-04-25T02:46:55;30.80;;;8.43;;
49828;SDS011;35723;51.194;5.112;2023-04-25T02:49:21;33.58;;;8.45;;
49828;SDS011;35723;51.194;5.112;2023-04-25T02:51:47;29.75;;;8.00;;
49828;SDS011;35723;51.194;5.112;2023-04-25T02:54:12;29.42;;;8.68;;
49828;SDS011;35723;51.194;5.112;2023-04-25T02:56:38;28.67;;;9.00;;
49828;SDS011;35723;51.194;5.112;2023-04-25T02:59:03;29.65;;;8.85;;
49828;SDS011;35723;51.194;5.112;2023-04-25T03:01:29;29.95;;;8.63;;
49828;SDS011;35723;51.194;5.112;2023-04-25T03:03:55;30.27;;;8.32;;
49828;SDS011;35723;51.194;5.112;2023-04-25T03:06:20;30.98;;;8.38;;
49828;SDS011;35723;51.194;5.112;2023-04-25T03:08:46;32.22;;;8.10;;
49828;SDS011;35723;51.194;5.112;2023-04-25T03:11:12;27.27;;;7.57;;
49828;SDS011;35723;51.194;5.112;2023-04-25T03:13:37;30.17;;;8.10;;
49828;SDS011;35723;51.194;5.112;2023-04-25T03:16:03;27.13;;;8.15;;
49828;SDS011;35723;51.194;5.112;2023-04-25T03:18:29;24.90;;;8.02;;
49828;SDS011;35723;51.194;5.112;2023-04-25T03:20:55;31.70;;;8.00;;
49828;SDS011;35723;51.194;5.112;2023-04-25T03:23:20;28.63;;;7.68;;
49828;SDS011;35723;51.194;5.112;2023-04-25T03:25:46;25.30;;;7.10;;
49828;SDS011;35723;51.194;5.112;2023-04-25T03:28:12;28.25;;;8.10;;
49828;SDS011;35723;51.194;5.112;2023-04-25T03:30:37;27.27;;;7.72;;
49828;SDS011;35723;51.194;5.112;2023-04-25T03:33:03;28.67;;;8.18;;
49828;SDS011;35723;51.194;5.112;2023-04-25T03:35:29;28.50;;;8.13;;
49828;SDS011;35723;51.194;5.112;2023-04-25T03:37:55;27.58;;;8.20;;
49828;SDS011;35723;51.194;5.112;2023-04-25T03:40:20;29.00;;;7.97;;
49828;SDS011;35723;51.194;5.112;2023-04-25T03:42:46;31.85;;;8.45;;
49828;SDS011;35723;51.194;5.112;2023-04-25T03:45:12;23.92;;;7.07;;
49828;SDS011;35723;51.194;5.112;2023-04-25T03:47:37;23.67;;;6.93;;
49828;SDS011;35723;51.194;5.112;2023-04-25T03:50:03;27.77;;;6.85;;
49828;SDS011;35723;51.194;5.112;2023-04-25T03:52:29;27.30;;;7.43;;
49828;SDS011;35723;51.194;5.112;2023-04-25T03:54:54;24.83;;;7.07;;
49828;SDS011;35723;51.194;5.112;2023-04-25T03:57:20;22.92;;;6.93;;
49828;SDS011;35723;51.194;5.112;2023-04-25T03:59:46;22.13;;;6.68;;
49828;SDS011;35723;51.194;5.112;2023-04-25T04:02:11;24.92;;;7.35;;
49828;SDS011;35723;51.194;5.112;2023-04-25T04:04:37;27.77;;;7.90;;
49828;SDS011;35723;51.194;5.112;2023-04-25T04:07:02;25.98;;;7.00;;
49828;SDS011;35723;51.194;5.112;2023-04-25T04:09:28;23.98;;;7.00;;
49828;SDS011;35723;51.194;5.112;2023-04-25T04:11:54;27.58;;;7.15;;
49828;SDS011;35723;51.194;5.112;2023-04-25T04:14:20;24.08;;;7.57;;
49828;SDS011;35723;51.194;5.112;2023-04-25T04:16:46;25.67;;;7.50;;
49828;SDS011;35723;51.194;5.112;2023-04-25T04:19:11;29.30;;;11.10;;
49828;SDS011;35723;51.194;5.112;2023-04-25T04:21:37;31.17;;;12.32;;
49828;SDS011;35723;51.194;5.112;2023-04-25T04:24:02;30.13;;;11.63;;
49828;SDS011;35723;51.194;5.112;2023-04-25T04:26:28;34.92;;;12.40;;
49828;SDS011;35723;51.194;5.112;2023-04-25T04:28:54;29.90;;;12.10;;
49828;SDS011;35723;51.194;5.112;2023-04-25T04:31:20;25.08;;;10.27;;
49828;SDS011;35723;51.194;5.112;2023-04-25T04:33:46;24.40;;;8.95;;
49828;SDS011;35723;51.194;5.112;2023-04-25T04:36:12;24.00;;;8.82;;
49828;SDS011;35723;51.194;5.112;2023-04-25T04:38:38;30.23;;;8.80;;
49828;SDS011;35723;51.194;5.112;2023-04-25T04:41:05;28.42;;;8.85;;
49828;SDS011;35723;51.194;5.112;2023-04-25T04:43:31;22.65;;;8.18;;
49828;SDS011;35723;51.194;5.112;2023-04-25T04:45:58;30.50;;;9.13;;
49828;SDS011;35723;51.194;5.112;2023-04-25T04:48:28;36.97;;;15.68;;
49828;SDS011;35723;51.194;5.112;2023-04-25T04:50:57;53.10;;;22.65;;
49828;SDS011;35723;51.194;5.112;2023-04-25T04:53:23;58.95;;;23.63;;
49828;SDS011;35723;51.194;5.112;2023-04-25T04:55:49;46.78;;;17.58;;
49828;SDS011;35723;51.194;5.112;2023-04-25T04:58:15;42.78;;;16.75;;
49828;SDS011;35723;51.194;5.112;2023-04-25T05:00:40;43.50;;;17.45;;
49828;SDS011;35723;51.194;5.112;2023-04-25T05:03:06;36.75;;;14.27;;
49828;SDS011;35723;51.194;5.112;2023-04-25T05:05:32;40.38;;;14.75;;
49828;SDS011;35723;51.194;5.112;2023-04-25T05:07:57;58.40;;;22.30;;
49828;SDS011;35723;51.194;5.112;2023-04-25T05:10:23;62.78;;;25.83;;
49828;SDS011;35723;51.194;5.112;2023-04-25T05:12:51;47.28;;;19.77;;
49828;SDS011;35723;51.194;5.112;2023-04-25T05:15:16;45.67;;;14.65;;
49828;SDS011;35723;51.194;5.112;2023-04-25T05:17:42;31.48;;;12.25;;
49828;SDS011;35723;51.194;5.112;2023-04-25T05:20:08;30.58;;;11.55;;
49828;SDS011;35723;51.194;5.112;2023-04-25T05:22:34;34.92;;;11.82;;
49828;SDS011;35723;51.194;5.112;2023-04-25T05:25:00;30.67;;;11.32;;
49828;SDS011;35723;51.194;5.112;2023-04-25T05:27:26;27.05;;;11.05;;
49828;SDS011;35723;51.194;5.112;2023-04-25T05:29:51;29.52;;;10.60;;
49828;SDS011;35723;51.194;5.112;2023-04-25T05:32:17;30.20;;;10.75;;
49828;SDS011;35723;51.194;5.112;2023-04-25T05:34:43;32.53;;;10.95;;
49828;SDS011;35723;51.194;5.112;2023-04-25T05:37:09;31.00;;;11.02;;
49828;SDS011;35723;51.194;5.112;2023-04-25T05:39:35;29.95;;;10.70;;
49828;SDS011;35723;51.194;5.112;2023-04-25T05:42:00;32.42;;;11.85;;
49828;SDS011;35723;51.194;5.112;2023-04-25T05:44:26;34.10;;;10.57;;
49828;SDS011;35723;51.194;5.112;2023-04-25T05:46:52;32.65;;;11.48;;
49828;SDS011;35723;51.194;5.112;2023-04-25T05:49:17;32.72;;;11.05;;
49828;SDS011;35723;51.194;5.112;2023-04-25T05:51:43;32.45;;;10.50;;
49828;SDS011;35723;51.194;5.112;2023-04-25T05:54:09;36.58;;;12.05;;
49828;SDS011;35723;51.194;5.112;2023-04-25T05:56:34;29.55;;;11.10;;
49828;SDS011;35723;51.194;5.112;2023-04-25T05:59:00;37.17;;;11.27;;
49828;SDS011;35723;51.194;5.112;2023-04-25T06:01:26;29.65;;;9.82;;
49828;SDS011;35723;51.194;5.112;2023-04-25T06:03:51;36.83;;;11.15;;
49828;SDS011;35723;51.194;5.112;2023-04-25T06:06:17;32.78;;;10.15;;
49828;SDS011;35723;51.194;5.112;2023-04-25T06:08:43;31.50;;;10.68;;
49828;SDS011;35723;51.194;5.112;2023-04-25T06:11:09;27.25;;;10.13;;
49828;SDS011;35723;51.194;5.112;2023-04-25T06:13:35;37.45;;;10.13;;
49828;SDS011;35723;51.194;5.112;2023-04-25T06:16:01;36.95;;;11.23;;
49828;SDS011;35723;51.194;5.112;2023-04-25T06:18:26;26.67;;;10.25;;
49828;SDS011;35723;51.194;5.112;2023-04-25T06:20:52;34.63;;;10.13;;
49828;SDS011;35723;51.194;5.112;2023-04-25T06:23:18;40.35;;;11.80;;
49828;SDS011;35723;51.194;5.112;2023-04-25T06:25:43;33.20;;;10.13;;
49828;SDS011;35723;51.194;5.112;2023-04-25T06:28:09;32.17;;;9.65;;
49828;SDS011;35723;51.194;5.112;2023-04-25T06:30:34;29.77;;;10.23;;
49828;SDS011;35723;51.194;5.112;2023-04-25T06:33:00;33.35;;;10.30;;
49828;SDS011;35723;51.194;5.112;2023-04-25T06:35:26;32.13;;;9.15;;
49828;SDS011;35723;51.194;5.112;2023-04-25T06:37:51;29.92;;;9.23;;
49828;SDS011;35723;51.194;5.112;2023-04-25T06:40:17;36.03;;;8.75;;
49828;SDS011;35723;51.194;5.112;2023-04-25T06:42:43;27.85;;;9.20;;
49828;SDS011;35723;51.194;5.112;2023-04-25T06:45:08;27.17;;;9.23;;
49828;SDS011;35723;51.194;5.112;2023-04-25T06:47:34;27.42;;;8.20;;
49828;SDS011;35723;51.194;5.112;2023-04-25T06:50:00;26.15;;;7.95;;
49828;SDS011;35723;51.194;5.112;2023-04-25T06:52:26;23.90;;;7.63;;
49828;SDS011;35723;51.194;5.112;2023-04-25T06:54:51;29.00;;;7.93;;
49828;SDS011;35723;51.194;5.112;2023-04-25T06:57:17;28.42;;;7.97;;
49828;SDS011;35723;51.194;5.112;2023-04-25T06:59:42;25.60;;;7.65;;
49828;SDS011;35723;51.194;5.112;2023-04-25T07:02:08;29.52;;;7.68;;
49828;SDS011;35723;51.194;5.112;2023-04-25T07:04:34;23.33;;;6.78;;
49828;SDS011;35723;51.194;5.112;2023-04-25T07:06:59;23.55;;;6.93;;
49828;SDS011;35723;51.194;5.112;2023-04-25T07:09:27;25.25;;;7.25;;
49828;SDS011;35723;51.194;5.112;2023-04-25T07:11:53;23.17;;;7.20;;
49828;SDS011;35723;51.194;5.112;2023-04-25T07:14:18;26.83;;;6.10;;
49828;SDS011;35723;51.194;5.112;2023-04-25T07:16:45;22.70;;;5.70;;
49828;SDS011;35723;51.194;5.112;2023-04-25T07:19:10;24.88;;;6.18;;
49828;SDS011;35723;51.194;5.112;2023-04-25T07:21:36;24.38;;;5.65;;
49828;SDS011;35723;51.194;5.112;2023-04-25T07:24:02;22.52;;;5.07;;
49828;SDS011;35723;51.194;5.112;2023-04-25T07:26:27;22.23;;;5.20;;
49828;SDS011;35723;51.194;5.112;2023-04-25T07:28:53;20.73;;;5.40;;
49828;SDS011;35723;51.194;5.112;2023-04-25T07:31:19;24.40;;;5.13;;
49828;SDS011;35723;51.194;5.112;2023-04-25T07:33:45;17.83;;;4.82;;
49828;SDS011;35723;51.194;5.112;2023-04-25T07:36:11;19.80;;;5.10;;
49828;SDS011;35723;51.194;5.112;2023-04-25T07:38:37;16.13;;;4.63;;
49828;SDS011;35723;51.194;5.112;2023-04-25T07:41:03;24.58;;;5.45;;
49828;SDS011;35723;51.194;5.112;2023-04-25T07:43:29;20.85;;;4.50;;
49828;SDS011;35723;51.194;5.112;2023-04-25T07:45:55;24.17;;;4.63;;
49828;SDS011;35723;51.194;5.112;2023-04-25T07:48:21;16.67;;;4.43;;
49828;SDS011;35723;51.194;5.112;2023-04-25T07:50:48;21.10;;;4.70;;
49828;SDS011;35723;51.194;5.112;2023-04-25T07:53:13;17.57;;;4.57;;
49828;SDS011;35723;51.194;5.112;2023-04-25T07:55:39;20.48;;;4.20;;
49828;SDS011;35723;51.194;5.112;2023-04-25T07:58:08;17.83;;;4.45;;
49828;SDS011;35723;51.194;5.112;2023-04-25T08:00:35;17.92;;;4.15;;
49828;SDS011;35723;51.194;5.112;2023-04-25T08:03:01;18.85;;;3.92;;
49828;SDS011;35723;51.194;5.112;2023-04-25T08:05:27;17.20;;;3.60;;
49828;SDS011;35723;51.194;5.112;2023-04-25T08:07:53;15.05;;;3.63;;
49828;SDS011;35723;51.194;5.112;2023-04-25T08:10:19;14.90;;;3.92;;
49828;SDS011;35723;51.194;5.112;2023-04-25T08:12:45;17.13;;;3.63;;
49828;SDS011;35723;51.194;5.112;2023-04-25T08:15:11;14.48;;;3.88;;
49828;SDS011;35723;51.194;5.112;2023-04-25T08:17:38;20.98;;;4.03;;
49828;SDS011;35723;51.194;5.112;2023-04-25T08:20:04;17.13;;;3.53;;
49828;SDS011;35723;51.194;5.112;2023-04-25T08:22:31;15.10;;;3.55;;
49828;SDS011;35723;51.194;5.112;2023-04-25T08:24:56;21.38;;;3.90;;
49828;SDS011;35723;51.194;5.112;2023-04-25T08:27:22;20.75;;;3.80;;
49828;SDS011;35723;51.194;5.112;2023-04-25T08:29:48;17.33;;;4.25;;
49828;SDS011;35723;51.194;5.112;2023-04-25T08:32:15;19.63;;;4.40;;
49828;SDS011;35723;51.194;5.112;2023-04-25T08:34:41;20.45;;;3.90;;
49828;SDS011;35723;51.194;5.112;2023-04-25T08:37:08;16.63;;;3.60;;
49828;SDS011;35723;51.194;5.112;2023-04-25T08:39:35;22.17;;;3.90;;
49828;SDS011;35723;51.194;5.112;2023-04-25T08:42:02;19.98;;;4.07;;
49828;SDS011;35723;51.194;5.112;2023-04-25T08:44:31;15.73;;;3.30;;
49828;SDS011;35723;51.194;5.112;2023-04-25T08:46:58;12.23;;;3.53;;
49828;SDS011;35723;51.194;5.112;2023-04-25T08:49:24;15.57;;;3.90;;
49828;SDS011;35723;51.194;5.112;2023-04-25T08:51:51;18.50;;;4.00;;
49828;SDS011;35723;51.194;5.112;2023-04-25T08:54:19;17.20;;;4.05;;
49828;SDS011;35723;51.194;5.112;2023-04-25T08:56:48;16.70;;;4.05;;
49828;SDS011;35723;51.194;5.112;2023-04-25T08:59:14;18.65;;;4.00;;
49828;SDS011;35723;51.194;5.112;2023-04-25T09:01:40;15.77;;;3.92;;
49828;SDS011;35723;51.194;5.112;2023-04-25T09:04:06;20.45;;;4.55;;
49828;SDS011;35723;51.194;5.112;2023-04-25T09:06:32;19.85;;;3.85;;
49828;SDS011;35723;51.194;5.112;2023-04-25T09:09:03;16.75;;;4.63;;
49828;SDS011;35723;51.194;5.112;2023-04-25T09:11:30;17.88;;;3.92;;
49828;SDS011;35723;51.194;5.112;2023-04-25T09:19:23;17.42;;;3.58;;
49828;SDS011;35723;51.194;5.112;2023-04-25T09:21:50;12.98;;;3.15;;
49828;SDS011;35723;51.194;5.112;2023-04-25T09:24:16;17.17;;;3.47;;
49828;SDS011;35723;51.194;5.112;2023-04-25T09:26:54;17.40;;;3.75;;
49828;SDS011;35723;51.194;5.112;2023-04-25T09:29:20;15.02;;;3.33;;
49828;SDS011;35723;51.194;5.112;2023-04-25T09:34:50;10.55;;;2.55;;
49828;SDS011;35723;51.194;5.112;2023-04-25T09:37:22;14.35;;;3.17;;
49828;SDS011;35723;51.194;5.112;2023-04-25T09:39:49;16.10;;;2.88;;
49828;SDS011;35723;51.194;5.112;2023-04-25T09:42:22;11.68;;;2.90;;
49828;SDS011;35723;51.194;5.112;2023-04-25T09:44:51;17.85;;;2.83;;
49828;SDS011;35723;51.194;5.112;2023-04-25T09:47:18;15.55;;;3.15;;
49828;SDS011;35723;51.194;5.112;2023-04-25T09:49:46;12.25;;;3.10;;
49828;SDS011;35723;51.194;5.112;2023-04-25T09:52:16;14.90;;;3.28;;
49828;SDS011;35723;51.194;5.112;2023-04-25T09:54:46;16.63;;;3.00;;
49828;SDS011;35723;51.194;5.112;2023-04-25T09:57:15;12.57;;;2.88;;
49828;SDS011;35723;51.194;5.112;2023-04-25T09:59:49;13.73;;;3.40;;
49828;SDS011;35723;51.194;5.112;2023-04-25T10:02:17;15.23;;;3.30;;
49828;SDS011;35723;51.194;5.112;2023-04-25T10:04:46;10.93;;;2.78;;
49828;SDS011;35723;51.194;5.112;2023-04-25T10:07:13;12.45;;;2.60;;
49828;SDS011;35723;51.194;5.112;2023-04-25T10:09:40;14.45;;;3.60;;
49828;SDS011;35723;51.194;5.112;2023-04-25T10:12:07;11.00;;;2.60;;
49828;SDS011;35723;51.194;5.112;2023-04-25T10:14:33;14.27;;;2.80;;
49828;SDS011;35723;51.194;5.112;2023-04-25T10:17:00;12.95;;;3.00;;
49828;SDS011;35723;51.194;5.112;2023-04-25T10:19:26;13.23;;;2.72;;
49828;SDS011;35723;51.194;5.112;2023-04-25T10:24:30;12.40;;;2.65;;
49828;SDS011;35723;51.194;5.112;2023-04-25T10:26:57;16.65;;;3.08;;
49828;SDS011;35723;51.194;5.112;2023-04-25T10:29:26;12.80;;;2.97;;
49828;SDS011;35723;51.194;5.112;2023-04-25T10:31:52;18.15;;;3.55;;
49828;SDS011;35723;51.194;5.112;2023-04-25T10:34:17;11.60;;;3.10;;
49828;SDS011;35723;51.194;5.112;2023-04-25T10:36:49;14.52;;;3.60;;
49828;SDS011;35723;51.194;5.112;2023-04-25T10:39:24;12.45;;;3.20;;
49828;SDS011;35723;51.194;5.112;2023-04-25T10:41:55;13.65;;;3.67;;
49828;SDS011;35723;51.194;5.112;2023-04-25T10:44:22;15.38;;;3.10;;
49828;SDS011;35723;51.194;5.112;2023-04-25T10:46:52;13.15;;;3.25;;
49828;SDS011;35723;51.194;5.112;2023-04-25T10:49:32;16.00;;;3.50;;
49828;SDS011;35723;51.194;5.112;2023-04-25T10:52:19;11.27;;;3.10;;
49828;SDS011;35723;51.194;5.112;2023-04-25T10:54:52;13.63;;;2.92;;
49828;SDS011;35723;51.194;5.112;2023-04-25T10:57:41;11.13;;;3.00;;
49828;SDS011;35723;51.194;5.112;2023-04-25T11:05:10;11.95;;;2.88;;
49828;SDS011;35723;51.194;5.112;2023-04-25T11:07:45;13.30;;;2.70;;
49828;SDS011;35723;51.194;5.112;2023-04-25T11:10:12;12.15;;;3.05;;
49828;SDS011;35723;51.194;5.112;2023-04-25T11:12:38;14.73;;;2.95;;
49828;SDS011;35723;51.194;5.112;2023-04-25T11:15:05;11.27;;;3.10;;
49828;SDS011;35723;51.194;5.112;2023-04-25T11:17:32;12.23;;;2.83;;
49828;SDS011;35723;51.194;5.112;2023-04-25T11:19:58;12.77;;;3.13;;
49828;SDS011;35723;51.194;5.112;2023-04-25T11:22:26;13.85;;;3.00;;
49828;SDS011;35723;51.194;5.112;2023-04-25T11:24:52;11.88;;;2.50;;
49828;SDS011;35723;51.194;5.112;2023-04-25T11:27:18;12.77;;;2.30;;
49828;SDS011;35723;51.194;5.112;2023-04-25T11:29:44;12.82;;;2.40;;
49828;SDS011;35723;51.194;5.112;2023-04-25T11:32:13;12.60;;;2.28;;
49828;SDS011;35723;51.194;5.112;2023-04-25T11:34:42;10.32;;;2.40;;
49828;SDS011;35723;51.194;5.112;2023-04-25T11:37:10;10.70;;;2.50;;
49828;SDS011;35723;51.194;5.112;2023-04-25T11:39:37;15.63;;;2.70;;
49828;SDS011;35723;51.194;5.112;2023-04-25T11:42:03;10.85;;;2.45;;
49828;SDS011;35723;51.194;5.112;2023-04-25T11:44:30;14.15;;;2.70;;
49828;SDS011;35723;51.194;5.112;2023-04-25T11:46:56;9.95;;;2.00;;
49828;SDS011;35723;51.194;5.112;2023-04-25T11:49:22;13.70;;;2.45;;
49828;SDS011;35723;51.194;5.112;2023-04-25T11:51:49;9.73;;;2.10;;
49828;SDS011;35723;51.194;5.112;2023-04-25T11:54:15;12.57;;;2.42;;
49828;SDS011;35723;51.194;5.112;2023-04-25T11:56:44;9.43;;;2.17;;
49828;SDS011;35723;51.194;5.112;2023-04-25T11:59:10;11.82;;;2.35;;
49828;SDS011;35723;51.194;5.112;2023-04-25T12:01:37;12.38;;;2.20;;
49828;SDS011;35723;51.194;5.112;2023-04-25T12:04:14;9.63;;;1.95;;
49828;SDS011;35723;51.194;5.112;2023-04-25T12:06:45;13.40;;;2.00;;
49828;SDS011;35723;51.194;5.112;2023-04-25T12:09:13;8.32;;;1.92;;
49828;SDS011;35723;51.194;5.112;2023-04-25T12:11:59;9.75;;;3.00;;
49828;SDS011;35723;51.194;5.112;2023-04-25T12:14:32;10.95;;;2.83;;
49828;SDS011;35723;51.194;5.112;2023-04-25T12:16:59;10.20;;;2.80;;
49828;SDS011;35723;51.194;5.112;2023-04-25T12:19:29;11.88;;;2.40;;
49828;SDS011;35723;51.194;5.112;2023-04-25T12:22:01;7.15;;;1.90;;
49828;SDS011;35723;51.194;5.112;2023-04-25T12:24:28;7.97;;;2.00;;
49828;SDS011;35723;51.194;5.112;2023-04-25T12:26:58;10.82;;;2.20;;
49828;SDS011;35723;51.194;5.112;2023-04-25T12:29:29;9.00;;;2.03;;
49828;SDS011;35723;51.194;5.112;2023-04-25T12:31:57;9.20;;;2.17;;
49828;SDS011;35723;51.194;5.112;2023-04-25T12:34:23;8.82;;;1.90;;
49828;SDS011;35723;51.194;5.112;2023-04-25T12:36:50;6.15;;;2.00;;
49828;SDS011;35723;51.194;5.112;2023-04-25T12:39:17;8.63;;;2.30;;
49828;SDS011;35723;51.194;5.112;2023-04-25T12:41:44;7.60;;;2.00;;
49828;SDS011;35723;51.194;5.112;2023-04-25T12:44:11;10.90;;;1.92;;
49828;SDS011;35723;51.194;5.112;2023-04-25T12:46:38;8.32;;;1.92;;
49828;SDS011;35723;51.194;5.112;2023-04-25T12:49:04;6.78;;;1.90;;
49828;SDS011;35723;51.194;5.112;2023-04-25T12:51:31;9.32;;;2.10;;
49828;SDS011;35723;51.194;5.112;2023-04-25T12:53:58;13.05;;;2.10;;
49828;SDS011;35723;51.194;5.112;2023-04-25T12:56:24;10.85;;;2.17;;
49828;SDS011;35723;51.194;5.112;2023-04-25T12:58:51;12.98;;;2.25;;
49828;SDS011;35723;51.194;5.112;2023-04-25T13:01:17;10.65;;;2.60;;
49828;SDS011;35723;51.194;5.112;2023-04-25T13:03:42;8.32;;;2.40;;
49828;SDS011;35723;51.194;5.112;2023-04-25T13:06:08;10.23;;;2.17;;
49828;SDS011;35723;51.194;5.112;2023-04-25T13:08:34;14.15;;;1.90;;
49828;SDS011;35723;51.194;5.112;2023-04-25T13:11:01;10.20;;;2.20;;
49828;SDS011;35723;51.194;5.112;2023-04-25T13:13:28;11.40;;;1.90;;
49828;SDS011;35723;51.194;5.112;2023-04-25T13:15:54;7.00;;;1.88;;
49828;SDS011;35723;51.194;5.112;2023-04-25T13:18:20;10.15;;;1.88;;
49828;SDS011;35723;51.194;5.112;2023-04-25T13:20:46;13.13;;;1.90;;
49828;SDS011;35723;51.194;5.112;2023-04-25T13:23:11;8.75;;;1.90;;
49828;SDS011;35723;51.194;5.112;2023-04-25T13:25:37;8.15;;;1.98;;
49828;SDS011;35723;51.194;5.112;2023-04-25T13:28:03;10.18;;;2.20;;
49828;SDS011;35723;51.194;5.112;2023-04-25T13:30:29;11.68;;;2.17;;
49828;SDS011;35723;51.194;5.112;2023-04-25T13:32:55;12.25;;;2.20;;
49828;SDS011;35723;51.194;5.112;2023-04-25T13:35:22;9.48;;;2.22;;
49828;SDS011;35723;51.194;5.112;2023-04-25T13:37:48;8.20;;;2.00;;
49828;SDS011;35723;51.194;5.112;2023-04-25T13:40:13;6.80;;;1.83;;
49828;SDS011;35723;51.194;5.112;2023-04-25T13:42:39;10.27;;;2.08;;
49828;SDS011;35723;51.194;5.112;2023-04-25T13:45:05;10.30;;;2.28;;
49828;SDS011;35723;51.194;5.112;2023-04-25T13:47:32;12.02;;;2.00;;
49828;SDS011;35723;51.194;5.112;2023-04-25T13:49:59;10.32;;;1.90;;
49828;SDS011;35723;51.194;5.112;2023-04-25T13:52:25;8.02;;;1.92;;
49828;SDS011;35723;51.194;5.112;2023-04-25T13:54:52;12.55;;;2.13;;
49828;SDS011;35723;51.194;5.112;2023-04-25T13:57:18;9.25;;;2.08;;
49828;SDS011;35723;51.194;5.112;2023-04-25T13:59:44;14.05;;;2.22;;
49828;SDS011;35723;51.194;5.112;2023-04-25T14:02:11;15.73;;;2.60;;
49828;SDS011;35723;51.194;5.112;2023-04-25T14:04:37;12.98;;;2.50;;
49828;SDS011;35723;51.194;5.112;2023-04-25T14:07:03;10.60;;;2.40;;
49828;SDS011;35723;51.194;5.112;2023-04-25T14:09:29;10.13;;;2.38;;
49828;SDS011;35723;51.194;5.112;2023-04-25T14:11:55;8.70;;;2.67;;
49828;SDS011;35723;51.194;5.112;2023-04-25T14:14:21;11.98;;;2.60;;
49828;SDS011;35723;51.194;5.112;2023-04-25T14:16:47;12.15;;;2.40;;
49828;SDS011;35723;51.194;5.112;2023-04-25T14:19:16;11.18;;;2.22;;
49828;SDS011;35723;51.194;5.112;2023-04-25T14:21:42;9.50;;;2.30;;
49828;SDS011;35723;51.194;5.112;2023-04-25T14:24:08;9.30;;;2.13;;
49828;SDS011;35723;51.194;5.112;2023-04-25T14:26:36;7.47;;;1.92;;
49828;SDS011;35723;51.194;5.112;2023-04-25T14:29:03;13.57;;;2.20;;
49828;SDS011;35723;51.194;5.112;2023-04-25T14:31:33;13.07;;;2.45;;
49828;SDS011;35723;51.194;5.112;2023-04-25T14:33:59;9.40;;;2.25;;
49828;SDS011;35723;51.194;5.112;2023-04-25T14:36:26;14.27;;;2.22;;
49828;SDS011;35723;51.194;5.112;2023-04-25T14:38:53;12.77;;;2.10;;
49828;SDS011;35723;51.194;5.112;2023-04-25T14:41:18;8.52;;;2.05;;
49828;SDS011;35723;51.194;5.112;2023-04-25T14:43:44;9.50;;;2.20;;
49828;SDS011;35723;51.194;5.112;2023-04-25T14:46:10;11.32;;;2.08;;